Tifton, GA (31793)

3:42 PM EDT on July 26, 2014 (GMT -0400)
Wood Triple Lake Road (KGATIFTO8) Elev 322 ft | 31.41 °N, 83.43 °W | Change Station

Current weather conditions updated 1 minute ago

Scattered Clouds
Scattered Clouds
93.5 °F
Feels Like 104 °F
N
1.0
Wind Variable Wind from NW
Gusts 4.0 mph

Today is forecast to be nearly the same temperature as yesterday.

Today
High -- | Low -- °F
--% Chance of Precip.
Yesterday
High -- | Low -- °F
Precip. -- in
6:46 AM 8:34 PM
Waning Crescent, 0% visible
Pressure 30.03 in
Visibility 10.0 miles
Clouds Scattered Clouds 7500 ft
Heat Index 104 °F
Dew Point 74 °F
Humidity 54%
Rainfall 0.00 in
Snow Depth Not available.
UV 9 out of 12
Pollen 4.90 out of 12
Air Quality Not available.
Flu Activity Not available.
METAR KTMA 261910Z AUTO 32005KT 10SM SCT075 33/20 A3003 RMK AO2 T03320204 TSNO

More Conditions Fewer Conditions

Pressure 30.03 in
Visibility 10.0 miles
Clouds Scattered Clouds 7500 ft
Heat Index 104 °F
Dew Point 74 °F
Humidity 54%
Rainfall 0.00 in
Snow Depth Not available.
UV 9 out of 12
Pollen 4.90 out of 12
Air Quality Not available.
Flu Activity Not available.
METAR KTMA 261910Z AUTO 32005KT 10SM SCT075 33/20 A3003 RMK AO2 T03320204 TSNO

More Conditions Fewer Conditions

10-Day Weather Forecast

Almanac

Astronomy

Jul. 26, 2014 Rise Set
Actual Time 6:46 AM EDT 8:34 PM EDT
Civil Twilight 6:19 AM EDT 9:00 PM EDT
Nautical Twilight 5:47 AM EDT 9:33 PM EDT
Astronomical Twilight 5:13 AM EDT 10:07 PM EDT
Moon 6:34 AM EDT 8:13 PM EDT
Length of Visible Light 14h 41m
Length of Day
13h 47m
Tomorrow will be 1m 17s shorter.
Waning Crescent, 0% of the Moon is Illuminated
Today
Waning Crescent
Jul 26
New
Aug 3
First Quarter
Aug 10
Full
Aug 17
Last Quarter

Today's Extremes

State Highs State Lows

Community

WunderPhotos

Upload Photos

1,737,685 photos uploaded!

Nearby

Snow Depth

Station Depth Elevation
No new snow has been reported.

Earthquake Activity

City Distance Mag. Time & Date
No recent earthquake activity has been reported nearby.
Minimum magnitude displayed is 2.5.

Coastal Water Temperatures

Place Temperature
No Stations Reporting

Nearby Weather Stations

Station Location Temp. Heat Index Dew Point Humidity Wind Precip. Elev Updated Type
Wood Triple Lake Road, Tifton, GA 93.5 °F 104 °F 74 °F 54% NW  at  1.0 mph 0.00 in / hr 322 ft 3:40 PM EDT Normal
APRSWXNET Ashburn GA, Ashburn, GA 96 °F 111 °F 77 °F 54% NW  at  0 mph 0.00 in / hr 452 ft 2:33 PM EDT MADIS
Worth County High School, Sylvester, GA 92.3 °F 100 °F 72 °F 51% SE  at  4.0 mph 0.00 in / hr 436 ft 3:40 PM EDT Normal
Hull Avenue, Nashville, GA, Nashville, GA 100.0 °F 108 °F 70 °F 38% NW  at  3.2 mph - / hr 233 ft 3:39 PM EDT Normal
Adel, Georgia, Adel, GA 94.3 °F 110 °F 78 °F 59% North  at  0.0 mph 0.00 in / hr 253 ft 3:42 PM EDT Rapid Fire

Show More Stations Show Fewer Stations